sensor_id;sensor_type;location;lat;lon;timestamp;P1;durP1;ratioP1;P2;durP2;ratioP2
51286;SDS011;37364;46.974;18.916;2023-04-24T00:00:58;62.00;;;19.10;;
51286;SDS011;37364;46.974;18.916;2023-04-24T00:03:32;23.52;;;8.90;;
51286;SDS011;37364;46.974;18.916;2023-04-24T00:06:03;23.08;;;9.75;;
51286;SDS011;37364;46.974;18.916;2023-04-24T00:08:34;18.23;;;8.02;;
51286;SDS011;37364;46.974;18.916;2023-04-24T00:11:05;18.90;;;7.45;;
51286;SDS011;37364;46.974;18.916;2023-04-24T00:13:35;10.35;;;6.85;;
51286;SDS011;37364;46.974;18.916;2023-04-24T00:16:06;23.27;;;6.60;;
51286;SDS011;37364;46.974;18.916;2023-04-24T00:18:39;15.77;;;5.90;;
51286;SDS011;37364;46.974;18.916;2023-04-24T00:21:09;20.30;;;6.80;;
51286;SDS011;37364;46.974;18.916;2023-04-24T00:23:39;14.82;;;6.40;;
51286;SDS011;37364;46.974;18.916;2023-04-24T00:26:10;14.57;;;6.50;;
51286;SDS011;37364;46.974;18.916;2023-04-24T00:28:40;12.07;;;6.35;;
51286;SDS011;37364;46.974;18.916;2023-04-24T00:31:11;16.70;;;6.70;;
51286;SDS011;37364;46.974;18.916;2023-04-24T00:33:44;10.73;;;6.72;;
51286;SDS011;37364;46.974;18.916;2023-04-24T00:36:14;11.90;;;6.13;;
51286;SDS011;37364;46.974;18.916;2023-04-24T00:38:46;10.77;;;6.55;;
51286;SDS011;37364;46.974;18.916;2023-04-24T00:41:16;12.13;;;6.35;;
51286;SDS011;37364;46.974;18.916;2023-04-24T00:43:47;12.38;;;6.57;;
51286;SDS011;37364;46.974;18.916;2023-04-24T00:46:17;17.10;;;5.88;;
51286;SDS011;37364;46.974;18.916;2023-04-24T00:48:55;14.23;;;6.38;;
51286;SDS011;37364;46.974;18.916;2023-04-24T00:51:27;18.15;;;6.40;;
51286;SDS011;37364;46.974;18.916;2023-04-24T00:53:59;10.98;;;6.07;;
51286;SDS011;37364;46.974;18.916;2023-04-24T00:56:29;11.45;;;6.72;;
51286;SDS011;37364;46.974;18.916;2023-04-24T00:59:00;14.18;;;5.85;;
51286;SDS011;37364;46.974;18.916;2023-04-24T01:01:34;18.08;;;7.10;;
51286;SDS011;37364;46.974;18.916;2023-04-24T01:04:13;19.27;;;7.18;;
51286;SDS011;37364;46.974;18.916;2023-04-24T01:06:49;14.77;;;7.45;;
51286;SDS011;37364;46.974;18.916;2023-04-24T01:09:23;16.50;;;8.38;;
51286;SDS011;37364;46.974;18.916;2023-04-24T01:11:53;17.35;;;8.20;;
51286;SDS011;37364;46.974;18.916;2023-04-24T01:14:24;14.65;;;8.93;;
51286;SDS011;37364;46.974;18.916;2023-04-24T01:16:54;28.48;;;8.65;;
51286;SDS011;37364;46.974;18.916;2023-04-24T01:19:29;18.88;;;8.82;;
51286;SDS011;37364;46.974;18.916;2023-04-24T01:21:59;17.77;;;8.23;;
51286;SDS011;37364;46.974;18.916;2023-04-24T01:24:35;15.70;;;8.27;;
51286;SDS011;37364;46.974;18.916;2023-04-24T01:27:06;21.45;;;8.63;;
51286;SDS011;37364;46.974;18.916;2023-04-24T01:29:37;16.80;;;9.40;;
51286;SDS011;37364;46.974;18.916;2023-04-24T01:32:09;17.27;;;8.85;;
51286;SDS011;37364;46.974;18.916;2023-04-24T01:34:39;19.48;;;8.25;;
51286;SDS011;37364;46.974;18.916;2023-04-24T01:37:10;13.15;;;8.20;;
51286;SDS011;37364;46.974;18.916;2023-04-24T01:39:42;15.27;;;8.35;;
51286;SDS011;37364;46.974;18.916;2023-04-24T01:42:13;11.43;;;7.63;;
51286;SDS011;37364;46.974;18.916;2023-04-24T01:44:46;18.70;;;8.60;;
51286;SDS011;37364;46.974;18.916;2023-04-24T01:47:16;16.58;;;8.80;;
51286;SDS011;37364;46.974;18.916;2023-04-24T01:49:47;27.08;;;9.63;;
51286;SDS011;37364;46.974;18.916;2023-04-24T01:52:18;13.18;;;8.73;;
51286;SDS011;37364;46.974;18.916;2023-04-24T01:54:50;17.77;;;8.55;;
51286;SDS011;37364;46.974;18.916;2023-04-24T01:57:22;13.98;;;8.32;;
51286;SDS011;37364;46.974;18.916;2023-04-24T01:59:52;21.45;;;8.35;;
51286;SDS011;37364;46.974;18.916;2023-04-24T02:02:23;17.15;;;8.95;;
51286;SDS011;37364;46.974;18.916;2023-04-24T02:04:56;24.02;;;8.70;;
51286;SDS011;37364;46.974;18.916;2023-04-24T02:07:26;10.82;;;8.18;;
51286;SDS011;37364;46.974;18.916;2023-04-24T02:09:59;10.38;;;8.23;;
51286;SDS011;37364;46.974;18.916;2023-04-24T02:12:31;16.45;;;9.35;;
51286;SDS011;37364;46.974;18.916;2023-04-24T02:15:01;12.20;;;7.60;;
51286;SDS011;37364;46.974;18.916;2023-04-24T02:17:32;14.77;;;8.50;;
51286;SDS011;37364;46.974;18.916;2023-04-24T02:20:03;15.25;;;8.25;;
51286;SDS011;37364;46.974;18.916;2023-04-24T02:22:34;13.93;;;7.25;;
51286;SDS011;37364;46.974;18.916;2023-04-24T02:25:07;21.40;;;8.65;;
51286;SDS011;37364;46.974;18.916;2023-04-24T02:27:38;18.60;;;8.82;;
51286;SDS011;37364;46.974;18.916;2023-04-24T02:30:09;19.98;;;8.88;;
51286;SDS011;37364;46.974;18.916;2023-04-24T02:32:39;18.35;;;9.07;;
51286;SDS011;37364;46.974;18.916;2023-04-24T02:35:10;10.65;;;8.80;;
51286;SDS011;37364;46.974;18.916;2023-04-24T02:37:40;12.25;;;8.80;;
51286;SDS011;37364;46.974;18.916;2023-04-24T02:40:14;16.25;;;9.05;;
51286;SDS011;37364;46.974;18.916;2023-04-24T02:42:44;21.65;;;9.25;;
51286;SDS011;37364;46.974;18.916;2023-04-24T02:45:14;13.73;;;9.10;;
51286;SDS011;37364;46.974;18.916;2023-04-24T02:47:45;20.10;;;8.27;;
51286;SDS011;37364;46.974;18.916;2023-04-24T02:50:15;18.67;;;8.70;;
51286;SDS011;37364;46.974;18.916;2023-04-24T02:52:46;22.92;;;9.40;;
51286;SDS011;37364;46.974;18.916;2023-04-24T02:55:18;14.40;;;9.10;;
51286;SDS011;37364;46.974;18.916;2023-04-24T02:57:49;23.60;;;9.35;;
51286;SDS011;37364;46.974;18.916;2023-04-24T03:00:19;15.52;;;10.38;;
51286;SDS011;37364;46.974;18.916;2023-04-24T03:02:49;19.25;;;10.27;;
51286;SDS011;37364;46.974;18.916;2023-04-24T03:05:20;17.35;;;9.20;;
51286;SDS011;37364;46.974;18.916;2023-04-24T03:07:50;16.83;;;9.07;;
51286;SDS011;37364;46.974;18.916;2023-04-24T03:10:24;14.63;;;9.00;;
51286;SDS011;37364;46.974;18.916;2023-04-24T03:12:54;29.67;;;9.77;;
51286;SDS011;37364;46.974;18.916;2023-04-24T03:15:24;19.85;;;9.48;;
51286;SDS011;37364;46.974;18.916;2023-04-24T03:17:55;14.88;;;10.55;;
51286;SDS011;37364;46.974;18.916;2023-04-24T03:20:25;15.65;;;8.75;;
51286;SDS011;37364;46.974;18.916;2023-04-24T03:22:58;14.73;;;10.38;;
51286;SDS011;37364;46.974;18.916;2023-04-24T03:25:31;24.98;;;10.35;;
51286;SDS011;37364;46.974;18.916;2023-04-24T03:30:47;31.20;;;12.85;;
51286;SDS011;37364;46.974;18.916;2023-04-24T03:33:19;20.45;;;12.98;;
51286;SDS011;37364;46.974;18.916;2023-04-24T03:35:59;26.15;;;11.75;;
51286;SDS011;37364;46.974;18.916;2023-04-24T03:38:38;26.17;;;12.98;;
51286;SDS011;37364;46.974;18.916;2023-04-24T03:41:25;22.90;;;13.48;;
51286;SDS011;37364;46.974;18.916;2023-04-24T03:44:03;25.80;;;12.32;;
51286;SDS011;37364;46.974;18.916;2023-04-24T03:46:34;24.10;;;12.30;;
51286;SDS011;37364;46.974;18.916;2023-04-24T03:49:05;19.60;;;11.02;;
51286;SDS011;37364;46.974;18.916;2023-04-24T03:51:40;19.38;;;11.38;;
51286;SDS011;37364;46.974;18.916;2023-04-24T03:54:18;41.28;;;15.25;;
51286;SDS011;37364;46.974;18.916;2023-04-24T03:56:53;40.97;;;20.50;;
51286;SDS011;37364;46.974;18.916;2023-04-24T03:59:26;38.00;;;18.52;;
51286;SDS011;37364;46.974;18.916;2023-04-24T04:02:11;35.00;;;19.67;;
51286;SDS011;37364;46.974;18.916;2023-04-24T04:04:41;57.80;;;22.77;;
51286;SDS011;37364;46.974;18.916;2023-04-24T04:07:12;56.95;;;27.42;;
51286;SDS011;37364;46.974;18.916;2023-04-24T04:09:42;55.85;;;24.33;;
51286;SDS011;37364;46.974;18.916;2023-04-24T04:12:15;73.35;;;29.63;;
51286;SDS011;37364;46.974;18.916;2023-04-24T04:14:45;41.47;;;25.57;;
51286;SDS011;37364;46.974;18.916;2023-04-24T04:17:16;52.22;;;25.63;;
51286;SDS011;37364;46.974;18.916;2023-04-24T04:19:46;48.10;;;23.73;;
51286;SDS011;37364;46.974;18.916;2023-04-24T04:22:16;63.25;;;30.02;;
51286;SDS011;37364;46.974;18.916;2023-04-24T04:24:49;93.30;;;32.92;;
51286;SDS011;37364;46.974;18.916;2023-04-24T04:27:24;56.05;;;29.42;;
51286;SDS011;37364;46.974;18.916;2023-04-24T04:30:01;54.08;;;27.42;;
51286;SDS011;37364;46.974;18.916;2023-04-24T04:32:40;51.97;;;25.40;;
51286;SDS011;37364;46.974;18.916;2023-04-24T04:35:11;35.30;;;19.10;;
51286;SDS011;37364;46.974;18.916;2023-04-24T04:37:41;31.10;;;16.38;;
51286;SDS011;37364;46.974;18.916;2023-04-24T04:40:18;24.13;;;13.05;;
51286;SDS011;37364;46.974;18.916;2023-04-24T04:42:57;20.05;;;11.68;;
51286;SDS011;37364;46.974;18.916;2023-04-24T04:45:32;15.60;;;11.95;;
51286;SDS011;37364;46.974;18.916;2023-04-24T04:48:21;20.88;;;12.82;;
51286;SDS011;37364;46.974;18.916;2023-04-24T04:50:51;25.45;;;13.82;;
51286;SDS011;37364;46.974;18.916;2023-04-24T04:53:22;22.98;;;12.45;;
51286;SDS011;37364;46.974;18.916;2023-04-24T04:55:53;36.17;;;13.93;;
51286;SDS011;37364;46.974;18.916;2023-04-24T04:58:30;19.88;;;12.75;;
51286;SDS011;37364;46.974;18.916;2023-04-24T05:01:01;24.20;;;12.10;;
51286;SDS011;37364;46.974;18.916;2023-04-24T05:03:39;22.55;;;11.52;;
51286;SDS011;37364;46.974;18.916;2023-04-24T05:06:12;15.38;;;12.23;;
51286;SDS011;37364;46.974;18.916;2023-04-24T05:08:44;21.23;;;12.07;;
51286;SDS011;37364;46.974;18.916;2023-04-24T05:11:26;25.05;;;13.07;;
51286;SDS011;37364;46.974;18.916;2023-04-24T05:14:00;27.50;;;12.98;;
51286;SDS011;37364;46.974;18.916;2023-04-24T05:16:36;32.05;;;11.85;;
51286;SDS011;37364;46.974;18.916;2023-04-24T05:19:08;22.45;;;13.25;;
51286;SDS011;37364;46.974;18.916;2023-04-24T05:21:40;28.42;;;12.10;;
51286;SDS011;37364;46.974;18.916;2023-04-24T05:24:11;50.45;;;21.95;;
51286;SDS011;37364;46.974;18.916;2023-04-24T05:27:00;53.50;;;26.15;;
51286;SDS011;37364;46.974;18.916;2023-04-24T05:29:39;59.03;;;27.45;;
51286;SDS011;37364;46.974;18.916;2023-04-24T05:32:10;101.93;;;42.97;;
51286;SDS011;37364;46.974;18.916;2023-04-24T05:34:40;91.97;;;42.60;;
51286;SDS011;37364;46.974;18.916;2023-04-24T05:37:11;90.88;;;39.78;;
51286;SDS011;37364;46.974;18.916;2023-04-24T05:39:41;70.35;;;35.85;;
51286;SDS011;37364;46.974;18.916;2023-04-24T05:42:12;66.85;;;34.80;;
51286;SDS011;37364;46.974;18.916;2023-04-24T05:44:47;71.93;;;34.97;;
51286;SDS011;37364;46.974;18.916;2023-04-24T05:47:19;93.20;;;41.70;;
51286;SDS011;37364;46.974;18.916;2023-04-24T05:49:53;88.70;;;39.17;;
51286;SDS011;37364;46.974;18.916;2023-04-24T05:52:23;99.47;;;48.60;;
51286;SDS011;37364;46.974;18.916;2023-04-24T05:54:54;109.65;;;51.03;;
51286;SDS011;37364;46.974;18.916;2023-04-24T05:57:27;104.93;;;52.13;;
51286;SDS011;37364;46.974;18.916;2023-04-24T06:00:05;99.72;;;47.45;;
51286;SDS011;37364;46.974;18.916;2023-04-24T06:02:39;110.82;;;50.75;;
51286;SDS011;37364;46.974;18.916;2023-04-24T06:05:12;125.70;;;52.67;;
51286;SDS011;37364;46.974;18.916;2023-04-24T06:07:42;103.45;;;49.10;;
51286;SDS011;37364;46.974;18.916;2023-04-24T06:10:15;120.00;;;50.05;;
51286;SDS011;37364;46.974;18.916;2023-04-24T06:12:45;111.75;;;48.75;;
51286;SDS011;37364;46.974;18.916;2023-04-24T06:15:19;120.75;;;54.80;;
51286;SDS011;37364;46.974;18.916;2023-04-24T06:17:56;125.22;;;56.92;;
51286;SDS011;37364;46.974;18.916;2023-04-24T06:20:27;119.95;;;56.17;;
51286;SDS011;37364;46.974;18.916;2023-04-24T06:22:57;126.03;;;62.00;;
51286;SDS011;37364;46.974;18.916;2023-04-24T06:25:28;137.45;;;60.40;;
51286;SDS011;37364;46.974;18.916;2023-04-24T06:27:58;140.85;;;59.83;;
51286;SDS011;37364;46.974;18.916;2023-04-24T06:30:32;135.60;;;65.00;;
51286;SDS011;37364;46.974;18.916;2023-04-24T06:33:03;141.35;;;62.83;;
51286;SDS011;37364;46.974;18.916;2023-04-24T06:35:45;150.38;;;72.72;;
51286;SDS011;37364;46.974;18.916;2023-04-24T06:38:15;151.13;;;72.25;;
51286;SDS011;37364;46.974;18.916;2023-04-24T06:40:45;148.80;;;70.55;;
51286;SDS011;37364;46.974;18.916;2023-04-24T06:43:16;145.65;;;62.35;;
51286;SDS011;37364;46.974;18.916;2023-04-24T06:45:49;135.68;;;60.63;;
51286;SDS011;37364;46.974;18.916;2023-04-24T06:48:20;124.15;;;59.40;;
51286;SDS011;37364;46.974;18.916;2023-04-24T06:50:50;122.30;;;55.72;;
51286;SDS011;37364;46.974;18.916;2023-04-24T06:53:20;140.27;;;62.70;;
51286;SDS011;37364;46.974;18.916;2023-04-24T06:55:52;124.60;;;59.67;;
51286;SDS011;37364;46.974;18.916;2023-04-24T06:58:22;130.23;;;59.70;;
51286;SDS011;37364;46.974;18.916;2023-04-24T07:00:56;126.93;;;58.40;;
51286;SDS011;37364;46.974;18.916;2023-04-24T07:03:26;156.57;;;62.30;;
51286;SDS011;37364;46.974;18.916;2023-04-24T07:06:00;137.52;;;59.22;;
51286;SDS011;37364;46.974;18.916;2023-04-24T07:08:31;125.53;;;54.63;;
51286;SDS011;37364;46.974;18.916;2023-04-24T07:11:02;121.75;;;52.20;;
51286;SDS011;37364;46.974;18.916;2023-04-24T07:13:33;113.55;;;53.60;;
51286;SDS011;37364;46.974;18.916;2023-04-24T07:16:11;114.70;;;52.45;;
51286;SDS011;37364;46.974;18.916;2023-04-24T07:18:41;115.50;;;54.00;;
51286;SDS011;37364;46.974;18.916;2023-04-24T07:21:12;88.80;;;49.60;;
51286;SDS011;37364;46.974;18.916;2023-04-24T07:23:42;94.80;;;51.42;;
51286;SDS011;37364;46.974;18.916;2023-04-24T07:26:12;79.63;;;43.63;;
51286;SDS011;37364;46.974;18.916;2023-04-24T07:28:43;92.78;;;44.65;;
51286;SDS011;37364;46.974;18.916;2023-04-24T07:31:16;111.32;;;49.53;;
51286;SDS011;37364;46.974;18.916;2023-04-24T07:33:46;112.00;;;53.03;;
51286;SDS011;37364;46.974;18.916;2023-04-24T07:36:17;133.98;;;64.38;;
51286;SDS011;37364;46.974;18.916;2023-04-24T07:38:47;181.32;;;78.90;;
51286;SDS011;37364;46.974;18.916;2023-04-24T07:41:18;196.52;;;85.85;;
51286;SDS011;37364;46.974;18.916;2023-04-24T07:43:50;193.80;;;88.60;;
51286;SDS011;37364;46.974;18.916;2023-04-24T07:46:23;196.23;;;92.95;;
51286;SDS011;37364;46.974;18.916;2023-04-24T07:48:56;219.48;;;106.18;;
51286;SDS011;37364;46.974;18.916;2023-04-24T07:51:39;229.27;;;108.35;;
51286;SDS011;37364;46.974;18.916;2023-04-24T07:54:09;214.73;;;99.68;;
51286;SDS011;37364;46.974;18.916;2023-04-24T07:56:40;251.43;;;113.43;;
51286;SDS011;37364;46.974;18.916;2023-04-24T07:59:11;156.07;;;74.05;;
51286;SDS011;37364;46.974;18.916;2023-04-24T08:01:44;131.20;;;63.15;;
51286;SDS011;37364;46.974;18.916;2023-04-24T08:04:14;133.63;;;58.00;;
51286;SDS011;37364;46.974;18.916;2023-04-24T08:06:46;92.28;;;44.53;;
51286;SDS011;37364;46.974;18.916;2023-04-24T08:09:17;95.85;;;39.85;;
51286;SDS011;37364;46.974;18.916;2023-04-24T08:11:47;93.25;;;39.40;;
51286;SDS011;37364;46.974;18.916;2023-04-24T08:14:17;69.57;;;35.50;;
51286;SDS011;37364;46.974;18.916;2023-04-24T08:16:50;60.30;;;31.42;;
51286;SDS011;37364;46.974;18.916;2023-04-24T08:19:21;53.75;;;25.17;;
51286;SDS011;37364;46.974;18.916;2023-04-24T08:21:52;41.17;;;19.63;;
51286;SDS011;37364;46.974;18.916;2023-04-24T08:24:22;33.00;;;18.27;;
51286;SDS011;37364;46.974;18.916;2023-04-24T08:26:52;30.27;;;17.60;;
51286;SDS011;37364;46.974;18.916;2023-04-24T08:29:24;22.42;;;16.77;;
51286;SDS011;37364;46.974;18.916;2023-04-24T08:31:57;30.70;;;17.42;;
51286;SDS011;37364;46.974;18.916;2023-04-24T08:34:28;25.38;;;17.05;;
51286;SDS011;37364;46.974;18.916;2023-04-24T08:36:58;28.73;;;15.60;;
51286;SDS011;37364;46.974;18.916;2023-04-24T08:39:28;23.38;;;14.82;;
51286;SDS011;37364;46.974;18.916;2023-04-24T08:41:58;22.00;;;14.23;;
51286;SDS011;37364;46.974;18.916;2023-04-24T08:44:35;33.25;;;14.32;;
51286;SDS011;37364;46.974;18.916;2023-04-24T08:47:08;29.15;;;15.57;;
51286;SDS011;37364;46.974;18.916;2023-04-24T08:49:41;17.35;;;14.15;;
51286;SDS011;37364;46.974;18.916;2023-04-24T08:52:13;24.38;;;15.75;;
51286;SDS011;37364;46.974;18.916;2023-04-24T08:54:43;22.95;;;13.95;;
51286;SDS011;37364;46.974;18.916;2023-04-24T08:57:15;30.50;;;14.93;;
51286;SDS011;37364;46.974;18.916;2023-04-24T08:59:49;23.13;;;14.75;;
51286;SDS011;37364;46.974;18.916;2023-04-24T09:02:22;32.95;;;14.70;;
51286;SDS011;37364;46.974;18.916;2023-04-24T09:04:53;17.27;;;13.65;;
51286;SDS011;37364;46.974;18.916;2023-04-24T09:07:25;27.52;;;13.57;;
51286;SDS011;37364;46.974;18.916;2023-04-24T09:10:00;22.20;;;12.98;;
51286;SDS011;37364;46.974;18.916;2023-04-24T09:12:32;16.45;;;11.95;;
51286;SDS011;37364;46.974;18.916;2023-04-24T09:15:03;18.20;;;13.70;;
51286;SDS011;37364;46.974;18.916;2023-04-24T09:17:37;24.73;;;13.48;;
51286;SDS011;37364;46.974;18.916;2023-04-24T09:20:08;24.77;;;13.68;;
51286;SDS011;37364;46.974;18.916;2023-04-24T09:22:38;14.95;;;11.70;;
51286;SDS011;37364;46.974;18.916;2023-04-24T09:25:09;28.77;;;13.10;;
51286;SDS011;37364;46.974;18.916;2023-04-24T09:27:42;31.77;;;12.25;;
51286;SDS011;37364;46.974;18.916;2023-04-24T09:30:14;17.30;;;12.00;;
51286;SDS011;37364;46.974;18.916;2023-04-24T09:32:56;36.60;;;13.20;;
51286;SDS011;37364;46.974;18.916;2023-04-24T09:35:40;17.35;;;10.80;;
51286;SDS011;37364;46.974;18.916;2023-04-24T09:38:12;18.58;;;12.23;;
51286;SDS011;37364;46.974;18.916;2023-04-24T09:40:43;31.23;;;12.73;;
51286;SDS011;37364;46.974;18.916;2023-04-24T09:43:13;22.33;;;12.82;;
51286;SDS011;37364;46.974;18.916;2023-04-24T09:45:43;37.55;;;15.30;;
51286;SDS011;37364;46.974;18.916;2023-04-24T09:48:16;26.00;;;14.32;;
51286;SDS011;37364;46.974;18.916;2023-04-24T09:50:46;26.73;;;14.60;;
51286;SDS011;37364;46.974;18.916;2023-04-24T09:53:18;28.70;;;14.27;;
51286;SDS011;37364;46.974;18.916;2023-04-24T09:55:54;21.52;;;13.45;;
51286;SDS011;37364;46.974;18.916;2023-04-24T09:58:24;16.33;;;12.63;;
51286;SDS011;37364;46.974;18.916;2023-04-24T10:00:55;23.83;;;13.30;;
51286;SDS011;37364;46.974;18.916;2023-04-24T10:03:29;17.35;;;13.77;;
51286;SDS011;37364;46.974;18.916;2023-04-24T10:06:03;25.95;;;13.00;;
51286;SDS011;37364;46.974;18.916;2023-04-24T10:11:06;33.63;;;12.15;;
51286;SDS011;37364;46.974;18.916;2023-04-24T10:13:38;20.30;;;10.88;;
51286;SDS011;37364;46.974;18.916;2023-04-24T10:16:09;26.85;;;11.35;;
51286;SDS011;37364;46.974;18.916;2023-04-24T10:18:43;20.35;;;9.63;;
51286;SDS011;37364;46.974;18.916;2023-04-24T10:21:13;18.27;;;9.13;;
51286;SDS011;37364;46.974;18.916;2023-04-24T10:23:44;22.95;;;8.57;;
51286;SDS011;37364;46.974;18.916;2023-04-24T10:26:15;17.50;;;9.32;;
51286;SDS011;37364;46.974;18.916;2023-04-24T10:28:46;20.77;;;9.30;;
51286;SDS011;37364;46.974;18.916;2023-04-24T10:31:17;9.85;;;8.07;;
51286;SDS011;37364;46.974;18.916;2023-04-24T10:33:51;13.00;;;8.13;;
51286;SDS011;37364;46.974;18.916;2023-04-24T10:36:22;15.65;;;8.50;;
51286;SDS011;37364;46.974;18.916;2023-04-24T10:38:54;12.80;;;8.20;;
51286;SDS011;37364;46.974;18.916;2023-04-24T10:41:27;23.63;;;8.85;;
51286;SDS011;37364;46.974;18.916;2023-04-24T10:44:04;22.15;;;8.13;;
51286;SDS011;37364;46.974;18.916;2023-04-24T10:46:36;16.75;;;7.78;;
51286;SDS011;37364;46.974;18.916;2023-04-24T10:49:10;15.57;;;7.75;;
51286;SDS011;37364;46.974;18.916;2023-04-24T10:51:47;23.33;;;8.55;;
51286;SDS011;37364;46.974;18.916;2023-04-24T10:54:23;22.88;;;6.85;;
51286;SDS011;37364;46.974;18.916;2023-04-24T10:57:25;16.38;;;6.15;;
51286;SDS011;37364;46.974;18.916;2023-04-24T11:02:47;9.98;;;6.88;;
51286;SDS011;37364;46.974;18.916;2023-04-24T11:05:22;7.05;;;5.43;;
51286;SDS011;37364;46.974;18.916;2023-04-24T11:08:14;22.27;;;6.15;;
51286;SDS011;37364;46.974;18.916;2023-04-24T11:11:00;13.90;;;5.57;;
51286;SDS011;37364;46.974;18.916;2023-04-24T11:16:32;13.23;;;5.43;;
51286;SDS011;37364;46.974;18.916;2023-04-24T11:19:06;14.90;;;4.68;;
51286;SDS011;37364;46.974;18.916;2023-04-24T11:21:44;12.80;;;4.50;;
51286;SDS011;37364;46.974;18.916;2023-04-24T11:24:22;6.72;;;4.05;;
51286;SDS011;37364;46.974;18.916;2023-04-24T11:26:54;6.32;;;4.07;;
51286;SDS011;37364;46.974;18.916;2023-04-24T11:29:41;8.93;;;3.80;;
51286;SDS011;37364;46.974;18.916;2023-04-24T11:32:19;4.43;;;3.30;;
51286;SDS011;37364;46.974;18.916;2023-04-24T11:34:55;11.23;;;3.17;;
51286;SDS011;37364;46.974;18.916;2023-04-24T11:37:35;8.30;;;3.20;;
51286;SDS011;37364;46.974;18.916;2023-04-24T11:40:07;6.22;;;3.47;;
51286;SDS011;37364;46.974;18.916;2023-04-24T11:42:40;5.10;;;3.13;;
51286;SDS011;37364;46.974;18.916;2023-04-24T11:45:12;5.43;;;2.92;;
51286;SDS011;37364;46.974;18.916;2023-04-24T11:47:44;8.55;;;2.92;;
51286;SDS011;37364;46.974;18.916;2023-04-24T11:50:15;9.15;;;2.97;;
51286;SDS011;37364;46.974;18.916;2023-04-24T11:52:49;17.85;;;3.47;;
51286;SDS011;37364;46.974;18.916;2023-04-24T11:55:23;5.07;;;3.28;;
51286;SDS011;37364;46.974;18.916;2023-04-24T11:57:56;7.82;;;2.90;;
51286;SDS011;37364;46.974;18.916;2023-04-24T12:00:28;10.40;;;2.78;;
51286;SDS011;37364;46.974;18.916;2023-04-24T12:05:35;12.75;;;3.25;;
51286;SDS011;37364;46.974;18.916;2023-04-24T12:08:10;11.45;;;3.30;;
51286;SDS011;37364;46.974;18.916;2023-04-24T12:10:41;9.57;;;3.08;;
51286;SDS011;37364;46.974;18.916;2023-04-24T12:13:11;5.85;;;3.55;;
51286;SDS011;37364;46.974;18.916;2023-04-24T12:15:42;9.10;;;3.30;;
51286;SDS011;37364;46.974;18.916;2023-04-24T12:18:13;15.57;;;3.28;;
51286;SDS011;37364;46.974;18.916;2023-04-24T12:20:44;7.47;;;3.40;;
51286;SDS011;37364;46.974;18.916;2023-04-24T12:23:28;9.27;;;4.05;;
51286;SDS011;37364;46.974;18.916;2023-04-24T12:26:04;6.35;;;4.28;;
51286;SDS011;37364;46.974;18.916;2023-04-24T12:28:35;4.32;;;3.30;;
51286;SDS011;37364;46.974;18.916;2023-04-24T12:31:06;6.13;;;3.78;;
51286;SDS011;37364;46.974;18.916;2023-04-24T12:33:37;6.22;;;3.42;;
51286;SDS011;37364;46.974;18.916;2023-04-24T12:36:07;8.50;;;4.38;;
51286;SDS011;37364;46.974;18.916;2023-04-24T12:38:43;7.40;;;3.83;;
51286;SDS011;37364;46.974;18.916;2023-04-24T12:41:13;5.53;;;4.15;;
51286;SDS011;37364;46.974;18.916;2023-04-24T12:43:52;8.68;;;4.13;;
51286;SDS011;37364;46.974;18.916;2023-04-24T12:46:23;12.35;;;4.18;;
51286;SDS011;37364;46.974;18.916;2023-04-24T12:48:53;10.38;;;3.95;;
51286;SDS011;37364;46.974;18.916;2023-04-24T12:51:25;8.18;;;4.85;;
51286;SDS011;37364;46.974;18.916;2023-04-24T12:53:58;9.52;;;4.93;;
51286;SDS011;37364;46.974;18.916;2023-04-24T12:56:28;8.85;;;5.32;;
51286;SDS011;37364;46.974;18.916;2023-04-24T12:58:58;7.85;;;5.18;;
51286;SDS011;37364;46.974;18.916;2023-04-24T13:01:28;5.25;;;4.72;;
51286;SDS011;37364;46.974;18.916;2023-04-24T13:03:59;8.32;;;5.07;;
51286;SDS011;37364;46.974;18.916;2023-04-24T13:06:29;10.20;;;5.05;;
51286;SDS011;37364;46.974;18.916;2023-04-24T13:09:02;18.25;;;6.80;;
51286;SDS011;37364;46.974;18.916;2023-04-24T13:11:32;9.38;;;5.75;;
51286;SDS011;37364;46.974;18.916;2023-04-24T13:14:02;11.48;;;5.10;;
51286;SDS011;37364;46.974;18.916;2023-04-24T13:16:33;10.40;;;4.93;;
51286;SDS011;37364;46.974;18.916;2023-04-24T13:19:04;8.35;;;5.10;;
51286;SDS011;37364;46.974;18.916;2023-04-24T13:21:34;7.50;;;5.20;;
51286;SDS011;37364;46.974;18.916;2023-04-24T13:24:07;11.88;;;4.68;;
51286;SDS011;37364;46.974;18.916;2023-04-24T13:26:37;6.47;;;5.53;;
51286;SDS011;37364;46.974;18.916;2023-04-24T13:29:07;13.65;;;6.03;;
51286;SDS011;37364;46.974;18.916;2023-04-24T13:31:37;70.45;;;7.93;;
51286;SDS011;37364;46.974;18.916;2023-04-24T13:34:10;16.38;;;6.35;;
51286;SDS011;37364;46.974;18.916;2023-04-24T13:36:40;10.20;;;6.15;;
51286;SDS011;37364;46.974;18.916;2023-04-24T13:39:16;18.42;;;6.80;;
51286;SDS011;37364;46.974;18.916;2023-04-24T13:41:46;11.15;;;5.15;;
51286;SDS011;37364;46.974;18.916;2023-04-24T13:44:17;9.05;;;4.82;;
51286;SDS011;37364;46.974;18.916;2023-04-24T13:46:50;11.13;;;5.00;;
51286;SDS011;37364;46.974;18.916;2023-04-24T13:49:23;8.77;;;4.57;;
51286;SDS011;37364;46.974;18.916;2023-04-24T13:51:54;8.65;;;5.05;;
51286;SDS011;37364;46.974;18.916;2023-04-24T13:54:30;15.18;;;4.65;;
51286;SDS011;37364;46.974;18.916;2023-04-24T13:57:03;6.95;;;4.00;;
51286;SDS011;37364;46.974;18.916;2023-04-24T13:59:34;11.63;;;4.32;;
51286;SDS011;37364;46.974;18.916;2023-04-24T14:02:04;9.95;;;4.38;;
51286;SDS011;37364;46.974;18.916;2023-04-24T14:04:34;8.38;;;4.30;;
51286;SDS011;37364;46.974;18.916;2023-04-24T14:07:05;10.55;;;4.30;;
51286;SDS011;37364;46.974;18.916;2023-04-24T14:09:38;6.80;;;3.67;;
51286;SDS011;37364;46.974;18.916;2023-04-24T14:12:08;15.57;;;5.00;;
51286;SDS011;37364;46.974;18.916;2023-04-24T14:14:39;7.35;;;3.40;;
51286;SDS011;37364;46.974;18.916;2023-04-24T14:17:10;11.57;;;3.80;;
51286;SDS011;37364;46.974;18.916;2023-04-24T14:19:41;8.77;;;4.07;;
51286;SDS011;37364;46.974;18.916;2023-04-24T14:22:11;10.82;;;4.20;;
51286;SDS011;37364;46.974;18.916;2023-04-24T14:24:44;6.80;;;4.00;;
51286;SDS011;37364;46.974;18.916;2023-04-24T14:27:14;16.10;;;3.87;;
51286;SDS011;37364;46.974;18.916;2023-04-24T14:29:44;12.43;;;3.72;;
51286;SDS011;37364;46.974;18.916;2023-04-24T14:32:15;8.25;;;3.65;;
51286;SDS011;37364;46.974;18.916;2023-04-24T14:34:45;6.72;;;3.92;;
51286;SDS011;37364;46.974;18.916;2023-04-24T14:37:15;8.75;;;4.25;;
51286;SDS011;37364;46.974;18.916;2023-04-24T14:39:48;6.40;;;4.15;;
51286;SDS011;37364;46.974;18.916;2023-04-24T14:42:38;7.38;;;4.57;;
51286;SDS011;37364;46.974;18.916;2023-04-24T14:45:09;20.92;;;5.78;;
51286;SDS011;37364;46.974;18.916;2023-04-24T14:47:41;10.32;;;4.88;;
51286;SDS011;37364;46.974;18.916;2023-04-24T14:50:11;8.90;;;4.90;;
51286;SDS011;37364;46.974;18.916;2023-04-24T14:52:42;9.57;;;4.63;;
51286;SDS011;37364;46.974;18.916;2023-04-24T14:55:15;5.55;;;4.80;;
51286;SDS011;37364;46.974;18.916;2023-04-24T14:57:45;12.52;;;5.03;;
51286;SDS011;37364;46.974;18.916;2023-04-24T15:00:16;9.93;;;4.35;;